Time;durP1;ratioP1;P1;durP2;ratioP2;P2;SDS_P1;SDS_P2;PMS_P1;PMS_P2;Temp;Humidity;BMP_temperature;BMP_pressure;BME280_temperature;BME280_humidity;BME280_pressure;Samples;Min_cycle;Max_cycle;Signal;HPM_P1;HPM_P2
2022/11/14 00:00:31;;;;;;;26.23;19.33;;;5.70;99.90;;;;;;5074322;28;20115;-55
2022/11/14 00:03:02;;;;;;;28.80;19.77;;;5.60;99.90;;;;;;5074469;28;20114;-54
2022/11/14 00:05:28;;;;;;;33.08;19.38;;;5.70;99.90;;;;;;5074524;28;20020;-50
2022/11/14 00:07:54;;;;;;;28.00;19.80;;;5.60;99.90;;;;;;5074386;28;20031;-53
2022/11/14 00:10:20;;;;;;;29.35;20.05;;;5.70;99.90;;;;;;5074519;28;20082;-52
2022/11/14 00:12:45;;;;;;;26.27;18.42;;;5.60;99.90;;;;;;5074385;28;20094;-54
2022/11/14 00:15:12;;;;;;;29.33;19.08;;;5.60;99.90;;;;;;5074305;28;20039;-51
2022/11/14 00:17:38;;;;;;;27.48;18.98;;;5.60;99.90;;;;;;5074259;28;20025;-53
2022/11/14 00:20:05;;;;;;;27.63;19.15;;;5.50;99.90;;;;;;5073810;28;20057;-50
2022/11/14 00:22:31;;;;;;;26.00;19.92;;;5.50;99.90;;;;;;5071469;28;20021;-52
2022/11/14 00:24:56;;;;;;;28.35;21.00;;;5.50;99.90;;;;;;5072901;28;20070;-52
2022/11/14 00:27:22;;;;;;;31.15;21.33;;;5.40;99.90;;;;;;5073038;28;20029;-51
2022/11/14 00:29:48;;;;;;;27.70;20.08;;;5.30;99.90;;;;;;5072747;28;20056;-52
2022/11/14 00:32:13;;;;;;;34.40;20.65;;;5.20;99.90;;;;;;5072900;28;20639;-51
2022/11/14 00:34:39;;;;;;;31.83;21.58;;;5.20;99.90;;;;;;5088250;28;20173;-54
2022/11/14 00:37:05;;;;;;;33.70;22.60;;;5.10;99.90;;;;;;5072620;28;20042;-52
2022/11/14 00:39:30;;;;;;;31.23;22.13;;;5.10;99.90;;;;;;5072602;28;20140;-54
2022/11/14 00:41:56;;;;;;;32.90;21.27;;;5.00;99.90;;;;;;5073421;28;20029;-54
2022/11/14 00:44:22;;;;;;;33.55;21.00;;;4.90;99.90;;;;;;5073671;28;20383;-54
2022/11/14 00:46:47;;;;;;;31.00;22.33;;;4.90;99.90;;;;;;5073713;28;20025;-52
2022/11/14 00:49:13;;;;;;;34.45;20.90;;;4.90;99.90;;;;;;5089285;28;20017;-55
2022/11/14 00:51:38;;;;;;;29.30;21.20;;;4.90;99.90;;;;;;5089003;28;20645;-52
2022/11/14 00:54:04;;;;;;;31.95;20.60;;;5.00;99.90;;;;;;5073673;28;20108;-53
2022/11/14 00:56:30;;;;;;;36.10;22.05;;;5.00;99.90;;;;;;5073358;28;20024;-50
2022/11/14 00:58:55;;;;;;;30.92;22.05;;;5.00;99.90;;;;;;5072861;28;20480;-51
2022/11/14 01:01:21;;;;;;;28.88;20.35;;;5.00;99.90;;;;;;5073279;28;20028;-50
2022/11/14 01:03:48;;;;;;;33.40;22.30;;;5.00;99.90;;;;;;5072875;28;20032;-50
2022/11/14 01:06:15;;;;;;;32.80;22.10;;;5.00;99.90;;;;;;5073277;28;20116;-51
2022/11/14 01:08:41;;;;;;;28.95;22.05;;;5.00;99.90;;;;;;5073160;28;20021;-52
2022/11/14 01:11:10;;;;;;;33.17;21.60;;;5.00;99.90;;;;;;5073313;28;20029;-52
2022/11/14 01:13:36;;;;;;;30.13;21.90;;;5.00;99.90;;;;;;5073104;28;20111;-50
2022/11/14 01:16:02;;;;;;;30.52;22.25;;;4.90;99.90;;;;;;5073113;28;20131;-50
2022/11/14 01:18:28;;;;;;;33.08;22.42;;;4.80;99.90;;;;;;5072934;28;20123;-50
2022/11/14 01:20:54;;;;;;;36.35;23.08;;;4.80;99.90;;;;;;5072974;28;20365;-52
2022/11/14 01:23:19;;;;;;;35.45;23.15;;;4.80;99.90;;;;;;5073014;28;20021;-51
2022/11/14 01:25:45;;;;;;;35.75;22.02;;;4.80;99.90;;;;;;5072828;28;20478;-52
2022/11/14 01:28:16;;;;;;;35.92;20.73;;;4.80;99.90;;;;;;5073025;28;20498;-50
2022/11/14 01:30:42;;;;;;;38.00;24.48;;;4.80;99.90;;;;;;5072866;28;20028;-50
2022/11/14 01:33:08;;;;;;;36.08;23.20;;;4.90;99.90;;;;;;5088591;28;20070;-51
2022/11/14 01:35:35;;;;;;;30.55;21.20;;;4.90;99.90;;;;;;5072649;28;20025;-52
2022/11/14 01:38:01;;;;;;;31.10;21.13;;;4.90;99.90;;;;;;5072787;28;20032;-51
2022/11/14 01:40:27;;;;;;;32.75;21.48;;;4.90;99.90;;;;;;5072749;28;20033;-56
2022/11/14 01:43:15;;;;;;;29.67;21.38;;;4.90;99.90;;;;;;5072665;28;20577;-50
2022/11/14 01:45:53;;;;;;;33.20;22.88;;;4.90;99.90;;;;;;5072632;28;20024;-51
2022/11/14 01:48:43;;;;;;;34.55;22.17;;;4.90;99.90;;;;;;5072595;28;20023;-53
2022/11/14 01:51:17;;;;;;;29.23;21.40;;;4.90;99.90;;;;;;5072127;28;20029;-50
2022/11/14 01:53:44;;;;;;;30.27;21.98;;;4.80;99.90;;;;;;5072367;28;20017;-50
2022/11/14 01:56:14;;;;;;;31.65;21.42;;;4.70;99.90;;;;;;5070802;28;20029;-50
2022/11/14 01:58:43;;;;;;;30.95;22.02;;;4.80;99.90;;;;;;5071900;28;20045;-52
2022/11/14 02:01:09;;;;;;;28.40;18.95;;;4.90;99.90;;;;;;5072398;28;20025;-50
2022/11/14 02:03:38;;;;;;;31.77;20.02;;;5.00;99.90;;;;;;5072043;28;20017;-51
2022/11/14 02:06:06;;;;;;;26.20;19.30;;;4.90;99.90;;;;;;5072266;28;20499;-53
2022/11/14 02:08:33;;;;;;;33.15;20.45;;;5.00;99.90;;;;;;5071945;28;20035;-53
2022/11/14 02:10:58;;;;;;;26.90;17.95;;;5.20;99.90;;;;;;5072109;28;20111;-51
2022/11/14 02:13:24;;;;;;;24.15;17.50;;;5.30;99.90;;;;;;5072109;28;20165;-52
2022/11/14 02:15:50;;;;;;;23.73;17.30;;;5.30;99.90;;;;;;5072119;28;20024;-50
2022/11/14 02:18:16;;;;;;;22.88;17.58;;;5.30;99.90;;;;;;5071925;28;20044;-51
2022/11/14 02:20:42;;;;;;;23.15;17.38;;;5.30;99.90;;;;;;5072035;28;20474;-51
2022/11/14 02:23:11;;;;;;;23.80;16.98;;;5.30;99.90;;;;;;5072145;28;20032;-51
2022/11/14 02:25:38;;;;;;;28.67;18.85;;;5.20;99.90;;;;;;5071679;28;20029;-51
2022/11/14 02:28:06;;;;;;;24.73;18.40;;;5.10;99.90;;;;;;5071886;28;20020;-51
2022/11/14 02:30:32;;;;;;;25.98;17.75;;;5.00;99.90;;;;;;5071771;28;20108;-52
2022/11/14 02:32:58;;;;;;;26.50;20.38;;;4.90;99.90;;;;;;5071996;28;20020;-50
2022/11/14 02:35:24;;;;;;;31.40;19.95;;;4.90;99.90;;;;;;5071706;28;20032;-53
2022/11/14 02:37:50;;;;;;;25.38;20.35;;;4.90;99.90;;;;;;5071736;28;20028;-53
2022/11/14 02:40:16;;;;;;;29.92;18.13;;;4.90;99.90;;;;;;5071724;28;20025;-52
2022/11/14 02:42:41;;;;;;;28.13;19.77;;;4.90;99.90;;;;;;5072317;28;20036;-55
2022/11/14 02:45:08;;;;;;;29.27;19.48;;;4.90;99.90;;;;;;5071572;28;20020;-52
2022/11/14 02:47:34;;;;;;;24.33;18.30;;;4.90;99.90;;;;;;5071404;28;20070;-53
2022/11/14 02:49:59;;;;;;;27.40;18.48;;;5.00;99.90;;;;;;5071747;28;20028;-51
2022/11/14 02:52:25;;;;;;;24.83;17.80;;;5.00;99.90;;;;;;5071629;28;20124;-52
2022/11/14 02:54:51;;;;;;;23.98;17.60;;;5.00;99.90;;;;;;5071528;28;20034;-51
2022/11/14 02:57:16;;;;;;;22.85;17.02;;;4.90;99.90;;;;;;5071686;28;20055;-54
2022/11/14 02:59:42;;;;;;;23.70;17.00;;;4.90;99.90;;;;;;5071455;28;20021;-51
2022/11/14 03:02:09;;;;;;;25.42;16.90;;;4.80;99.90;;;;;;5071553;28;20043;-51
2022/11/14 03:04:34;;;;;;;23.55;17.85;;;4.70;99.90;;;;;;5073889;28;20029;-51
2022/11/14 03:07:00;;;;;;;24.27;17.48;;;4.60;99.90;;;;;;5075651;28;20017;-50
2022/11/14 03:09:25;;;;;;;25.08;16.65;;;4.50;99.90;;;;;;5075598;28;20031;-50
2022/11/14 03:11:51;;;;;;;23.80;17.05;;;4.50;99.90;;;;;;5075520;28;20435;-51
2022/11/14 03:14:17;;;;;;;32.72;16.27;;;4.50;99.90;;;;;;5075625;28;20035;-51
2022/11/14 03:16:42;;;;;;;24.40;17.40;;;4.60;99.90;;;;;;5075393;28;20036;-51
2022/11/14 03:19:23;;;;;;;24.20;16.65;;;4.60;99.90;;;;;;5075264;28;20044;-52
2022/11/14 03:21:49;;;;;;;26.52;17.77;;;4.70;99.90;;;;;;5075092;28;20028;-54
2022/11/14 03:24:14;;;;;;;21.33;16.20;;;4.70;99.90;;;;;;5075242;28;20040;-50
2022/11/14 03:26:40;;;;;;;24.70;17.08;;;4.70;99.90;;;;;;5075195;28;20348;-51
2022/11/14 03:29:05;;;;;;;24.40;16.55;;;4.70;99.90;;;;;;5075412;28;20372;-53
2022/11/14 03:31:31;;;;;;;24.02;16.55;;;4.60;99.90;;;;;;5075412;28;20028;-52
2022/11/14 03:33:57;;;;;;;24.27;16.48;;;4.50;99.90;;;;;;5074689;28;20032;-52
2022/11/14 03:36:22;;;;;;;21.60;16.70;;;4.40;99.90;;;;;;5075001;28;20125;-52
2022/11/14 03:38:48;;;;;;;23.17;14.93;;;4.40;99.90;;;;;;5074992;28;20041;-50
2022/11/14 03:41:13;;;;;;;30.88;18.20;;;4.30;99.90;;;;;;5075054;28;20029;-53
2022/11/14 03:43:39;;;;;;;25.17;16.83;;;4.20;99.90;;;;;;5074936;28;20483;-50
2022/11/14 03:46:05;;;;;;;24.77;17.48;;;4.20;99.90;;;;;;5074916;28;20020;-51
2022/11/14 03:48:31;;;;;;;24.23;16.48;;;4.30;99.90;;;;;;5074745;28;20017;-54
2022/11/14 03:50:57;;;;;;;23.02;16.65;;;4.40;99.90;;;;;;5074732;28;20024;-54
2022/11/14 03:53:22;;;;;;;22.88;15.93;;;4.40;99.90;;;;;;5074743;28;20438;-50
2022/11/14 03:55:48;;;;;;;24.73;17.60;;;4.60;99.90;;;;;;5074703;28;20067;-51
2022/11/14 03:58:14;;;;;;;24.70;16.42;;;4.60;99.90;;;;;;5074788;28;20035;-51
2022/11/14 04:00:40;;;;;;;24.27;17.77;;;4.60;99.90;;;;;;5074485;28;20032;-52
2022/11/14 04:03:05;;;;;;;22.92;17.05;;;4.60;99.90;;;;;;5074640;28;20028;-51
2022/11/14 04:05:31;;;;;;;26.95;18.05;;;4.50;99.90;;;;;;5074027;28;20021;-52
2022/11/14 04:07:57;;;;;;;23.33;15.35;;;4.50;99.90;;;;;;5074448;28;20012;-50
2022/11/14 04:10:22;;;;;;;23.83;16.45;;;4.50;99.90;;;;;;5074541;28;20033;-52
2022/11/14 04:12:50;;;;;;;22.33;15.70;;;4.40;99.90;;;;;;5074326;28;20021;-53
2022/11/14 04:15:16;;;;;;;21.00;14.90;;;4.30;99.90;;;;;;5073986;28;20017;-51
2022/11/14 04:17:42;;;;;;;22.85;15.25;;;4.20;99.90;;;;;;5074289;28;20085;-51
2022/11/14 04:20:09;;;;;;;23.05;15.25;;;4.00;99.90;;;;;;5073908;28;20586;-50
2022/11/14 04:22:34;;;;;;;21.45;14.95;;;3.90;99.90;;;;;;5073983;28;20057;-52
2022/11/14 04:25:00;;;;;;;22.05;16.27;;;3.80;99.90;;;;;;5074328;28;20491;-54
2022/11/14 04:27:25;;;;;;;23.55;16.38;;;3.80;99.90;;;;;;5074287;28;20067;-52
2022/11/14 04:29:51;;;;;;;21.98;16.27;;;4.00;99.90;;;;;;5074021;28;20400;-51
2022/11/14 04:32:17;;;;;;;20.42;15.68;;;4.00;99.90;;;;;;5089413;28;20112;-52
2022/11/14 04:34:42;;;;;;;29.55;17.40;;;3.90;99.90;;;;;;5073619;28;20527;-52
2022/11/14 04:37:08;;;;;;;23.35;17.17;;;3.80;99.90;;;;;;5073510;28;20020;-52
2022/11/14 04:39:33;;;;;;;20.88;16.52;;;3.80;99.90;;;;;;5073903;28;20025;-51
2022/11/14 04:41:59;;;;;;;21.98;15.48;;;3.70;99.90;;;;;;5073719;28;20029;-51
2022/11/14 04:44:25;;;;;;;22.05;16.77;;;3.60;99.90;;;;;;5075652;28;20024;-51
2022/11/14 04:46:50;;;;;;;24.80;16.55;;;3.60;99.90;;;;;;5094006;28;20024;-51
2022/11/14 04:49:16;;;;;;;24.75;16.05;;;3.50;99.90;;;;;;5092492;28;20487;-51
2022/11/14 04:51:41;;;;;;;26.85;17.90;;;3.40;99.90;;;;;;5093871;28;20027;-51
2022/11/14 04:54:07;;;;;;;26.02;17.42;;;3.40;99.90;;;;;;5092439;28;20028;-52
2022/11/14 04:56:33;;;;;;;27.10;19.08;;;3.50;99.90;;;;;;5093986;28;20016;-53
2022/11/14 04:58:58;;;;;;;23.10;17.65;;;3.90;99.90;;;;;;5093823;28;20115;-51
2022/11/14 05:01:24;;;;;;;26.50;18.08;;;4.00;99.90;;;;;;5093747;28;20024;-52
2022/11/14 05:03:49;;;;;;;23.13;16.13;;;4.20;99.90;;;;;;5093348;28;20025;-52
2022/11/14 05:06:18;;;;;;;22.88;16.77;;;4.20;99.90;;;;;;5093624;28;20033;-50
2022/11/14 05:08:44;;;;;;;24.13;16.27;;;4.20;99.90;;;;;;5093396;28;20124;-51
2022/11/14 05:11:15;;;;;;;30.48;18.23;;;4.20;99.90;;;;;;5093647;28;20520;-50
2022/11/14 05:13:41;;;;;;;22.77;16.73;;;4.30;99.90;;;;;;5093300;28;20024;-52
2022/11/14 05:16:07;;;;;;;24.05;17.48;;;4.50;99.90;;;;;;5093129;28;20058;-51
2022/11/14 05:18:33;;;;;;;26.15;17.27;;;4.50;99.90;;;;;;5092913;28;20040;-51
2022/11/14 05:21:00;;;;;;;22.42;15.82;;;4.60;99.90;;;;;;5093302;28;20112;-50
2022/11/14 05:23:25;;;;;;;27.15;18.15;;;4.70;99.90;;;;;;5093388;28;20032;-51
2022/11/14 05:26:02;;;;;;;25.40;17.48;;;4.70;99.90;;;;;;5092307;28;20364;-52
2022/11/14 05:28:29;;;;;;;30.27;17.50;;;4.70;99.90;;;;;;5091997;28;20422;-52
2022/11/14 05:31:05;;;;;;;28.35;17.63;;;4.70;99.90;;;;;;5090805;28;20437;-50
2022/11/14 05:33:31;;;;;;;30.27;18.15;;;4.60;99.90;;;;;;5091628;28;20035;-51
2022/11/14 05:36:08;;;;;;;24.85;18.10;;;4.50;99.90;;;;;;5091782;28;20107;-50
2022/11/14 05:38:34;;;;;;;27.50;17.42;;;4.40;99.90;;;;;;5091601;28;20123;-52
2022/11/14 05:41:07;;;;;;;28.55;18.48;;;4.40;99.90;;;;;;5091762;28;20391;-50
2022/11/14 05:43:33;;;;;;;31.15;20.60;;;4.30;99.90;;;;;;5091509;28;20028;-50
2022/11/14 05:46:04;;;;;;;32.20;20.48;;;4.10;99.90;;;;;;5090537;28;20144;-49
2022/11/14 05:48:30;;;;;;;30.52;21.35;;;4.30;99.90;;;;;;5091448;28;20391;-49
2022/11/14 05:50:58;;;;;;;32.75;19.73;;;4.40;99.90;;;;;;5091257;28;20031;-50
2022/11/14 05:53:25;;;;;;;29.42;20.60;;;4.30;99.90;;;;;;5091534;28;20038;-53
2022/11/14 05:55:51;;;;;;;34.38;21.60;;;4.30;99.90;;;;;;5091288;28;20123;-51
2022/11/14 05:58:17;;;;;;;30.27;19.40;;;4.20;99.90;;;;;;5091635;28;20127;-49
2022/11/14 06:00:43;;;;;;;29.33;19.27;;;4.20;99.90;;;;;;5090982;28;20111;-52
2022/11/14 06:03:09;;;;;;;34.80;21.30;;;4.10;99.90;;;;;;5090980;28;20115;-50
2022/11/14 06:05:35;;;;;;;27.08;19.17;;;4.10;99.90;;;;;;5091143;28;20462;-50
2022/11/14 06:08:01;;;;;;;30.23;19.77;;;4.00;99.90;;;;;;5091086;28;20028;-51
2022/11/14 06:10:29;;;;;;;30.58;20.33;;;3.90;99.90;;;;;;5091241;28;20103;-52
2022/11/14 06:12:55;;;;;;;32.28;21.45;;;3.90;99.90;;;;;;5090969;28;20536;-52
2022/11/14 06:15:21;;;;;;;31.42;19.30;;;3.90;99.90;;;;;;5091565;28;20028;-55
2022/11/14 06:17:46;;;;;;;29.25;19.70;;;3.80;99.90;;;;;;5089654;28;20028;-51
2022/11/14 06:20:14;;;;;;;28.27;20.02;;;3.80;99.90;;;;;;5090897;28;20071;-52
2022/11/14 06:22:40;;;;;;;38.38;22.52;;;3.70;99.90;;;;;;5090777;28;20735;-51
2022/11/14 06:25:08;;;;;;;34.00;20.42;;;3.70;99.90;;;;;;5090719;28;20483;-51
2022/11/14 06:27:39;;;;;;;34.50;21.70;;;3.70;99.90;;;;;;5090828;28;20294;-52
2022/11/14 06:30:05;;;;;;;34.13;22.45;;;3.70;99.90;;;;;;5091029;28;20364;-52
2022/11/14 06:32:31;;;;;;;53.55;30.83;;;3.70;99.90;;;;;;5089253;28;20039;-50
2022/11/14 06:34:56;;;;;;;39.78;23.25;;;3.70;99.90;;;;;;5089557;28;20024;-52
2022/11/14 06:37:22;;;;;;;45.88;31.92;;;3.70;99.90;;;;;;5090967;28;20028;-51
2022/11/14 06:39:48;;;;;;;40.30;25.83;;;3.70;99.90;;;;;;5089200;28;20538;-51
2022/11/14 06:42:15;;;;;;;44.67;24.05;;;3.70;99.90;;;;;;5090736;28;20028;-50
2022/11/14 06:44:40;;;;;;;35.50;23.80;;;3.70;99.90;;;;;;5090719;28;20522;-52
2022/11/14 06:47:06;;;;;;;32.25;21.60;;;3.60;99.90;;;;;;5090529;28;20028;-51
2022/11/14 06:49:31;;;;;;;38.20;25.17;;;3.60;99.90;;;;;;5090449;28;20023;-50
2022/11/14 06:51:57;;;;;;;48.50;28.67;;;3.60;99.90;;;;;;5090794;28;20032;-50
2022/11/14 06:54:23;;;;;;;41.53;25.60;;;3.60;99.90;;;;;;5090875;28;20494;-51
2022/11/14 06:56:48;;;;;;;34.45;23.08;;;3.70;99.90;;;;;;5090495;28;20021;-52
2022/11/14 06:59:14;;;;;;;35.80;22.10;;;3.70;99.90;;;;;;5090137;28;20081;-52
2022/11/14 07:01:40;;;;;;;32.92;18.92;;;3.80;99.90;;;;;;5090493;28;20165;-51
2022/11/14 07:04:05;;;;;;;30.10;19.58;;;3.80;99.90;;;;;;5090314;28;20028;-50
2022/11/14 07:06:31;;;;;;;26.30;19.77;;;3.90;99.90;;;;;;5090303;28;20012;-50
2022/11/14 07:08:57;;;;;;;36.03;21.00;;;4.00;99.90;;;;;;5089024;28;20024;-50
2022/11/14 07:11:28;;;;;;;34.20;21.50;;;4.20;99.90;;;;;;5089382;28;20029;-52
2022/11/14 07:13:59;;;;;;;31.85;20.17;;;4.60;99.90;;;;;;5090394;28;20040;-52
2022/11/14 07:16:30;;;;;;;31.98;20.73;;;4.80;99.90;;;;;;5090313;28;20031;-51
2022/11/14 07:18:56;;;;;;;29.63;20.80;;;5.10;99.90;;;;;;5090157;28;20068;-51
2022/11/14 07:21:23;;;;;;;31.15;20.98;;;5.30;99.90;;;;;;5088932;28;20028;-52
2022/11/14 07:23:48;;;;;;;31.38;21.10;;;5.50;99.90;;;;;;5090000;28;20418;-49
2022/11/14 07:26:14;;;;;;;29.23;19.73;;;5.70;99.90;;;;;;5090315;28;20028;-50
2022/11/14 07:28:42;;;;;;;29.45;19.88;;;5.80;99.90;;;;;;5090192;28;20035;-50
2022/11/14 07:31:13;;;;;;;25.90;18.70;;;6.00;99.90;;;;;;5090289;28;20391;-50
2022/11/14 07:33:39;;;;;;;25.85;19.10;;;6.10;99.90;;;;;;5090109;28;20480;-51
2022/11/14 07:36:06;;;;;;;30.00;18.52;;;6.20;99.90;;;;;;5090269;28;20012;-50
2022/11/14 07:38:33;;;;;;;25.83;18.02;;;6.30;99.90;;;;;;5090174;28;20394;-50
2022/11/14 07:41:07;;;;;;;29.52;20.40;;;6.40;99.90;;;;;;5090239;28;20012;-50
2022/11/14 07:43:33;;;;;;;27.90;18.67;;;6.40;99.90;;;;;;5089970;28;20408;-51
2022/11/14 07:46:04;;;;;;;34.45;20.25;;;6.50;99.90;;;;;;5090098;28;20026;-50
2022/11/14 07:48:30;;;;;;;40.00;18.60;;;6.60;99.90;;;;;;5089849;28;20428;-53
2022/11/14 07:51:00;;;;;;;24.52;18.00;;;6.60;99.90;;;;;;5093030;28;20099;-50
2022/11/14 07:53:27;;;;;;;28.98;18.52;;;6.60;99.90;;;;;;5094006;28;20034;-54
2022/11/14 07:55:53;;;;;;;26.48;19.55;;;6.70;99.90;;;;;;5093794;28;20028;-51
2022/11/14 07:58:19;;;;;;;28.05;18.40;;;6.70;99.90;;;;;;5093670;28;20073;-52
2022/11/14 08:00:44;;;;;;;26.27;18.85;;;6.70;99.90;;;;;;5093630;28;20021;-49
2022/11/14 08:03:10;;;;;;;34.50;19.00;;;6.70;99.90;;;;;;5093682;28;20550;-51
2022/11/14 08:05:36;;;;;;;27.92;20.30;;;6.70;99.90;;;;;;5093426;28;20099;-54
2022/11/14 08:08:02;;;;;;;27.30;17.83;;;6.70;99.90;;;;;;5093858;28;20058;-52
2022/11/14 08:10:27;;;;;;;24.58;17.80;;;6.80;99.90;;;;;;5093568;28;20115;-51
2022/11/14 08:13:01;;;;;;;24.63;18.05;;;6.90;99.90;;;;;;5093461;28;20115;-50
2022/11/14 08:15:27;;;;;;;25.35;18.60;;;7.00;99.90;;;;;;5093416;28;20383;-53
2022/11/14 08:17:57;;;;;;;24.25;17.45;;;7.00;99.90;;;;;;5092026;28;20387;-50
2022/11/14 08:20:23;;;;;;;25.38;16.77;;;7.00;99.90;;;;;;5093335;28;20035;-52
2022/11/14 08:22:49;;;;;;;26.38;17.98;;;7.00;99.90;;;;;;5093030;28;20062;-51
2022/11/14 08:25:14;;;;;;;24.65;16.95;;;7.10;99.90;;;;;;5093164;28;20051;-50
2022/11/14 08:27:40;;;;;;;25.58;18.15;;;7.10;99.90;;;;;;5092960;28;20051;-52
2022/11/14 08:30:06;;;;;;;30.92;18.67;;;7.10;99.90;;;;;;5093066;28;20031;-51
2022/11/14 08:32:32;;;;;;;25.58;18.30;;;7.20;99.90;;;;;;5093034;28;20387;-52
2022/11/14 08:34:57;;;;;;;26.90;19.02;;;7.20;99.90;;;;;;5092028;28;20035;-51
2022/11/14 08:37:23;;;;;;;25.52;18.75;;;7.20;99.90;;;;;;5092967;28;20386;-52
2022/11/14 08:39:49;;;;;;;34.20;19.42;;;7.30;99.90;;;;;;5092839;28;20028;-50
2022/11/14 08:42:14;;;;;;;24.17;17.42;;;7.50;99.90;;;;;;5092825;28;20024;-50
2022/11/14 08:44:40;;;;;;;22.25;16.25;;;7.70;99.90;;;;;;5092751;28;20070;-50
2022/11/14 08:47:06;;;;;;;24.73;17.05;;;7.90;99.90;;;;;;5092828;28;20056;-52
2022/11/14 08:49:31;;;;;;;29.67;17.95;;;8.10;99.90;;;;;;5092654;28;20027;-51
2022/11/14 08:51:57;;;;;;;26.73;16.85;;;8.30;99.90;;;;;;5092753;28;20024;-51
2022/11/14 08:54:23;;;;;;;24.13;15.98;;;8.40;99.90;;;;;;5092627;28;20047;-55
2022/11/14 08:56:48;;;;;;;22.60;15.93;;;8.40;99.90;;;;;;5092511;28;20465;-53
2022/11/14 08:59:14;;;;;;;29.15;18.38;;;8.60;99.90;;;;;;5092526;28;20546;-50
2022/11/14 09:01:42;;;;;;;24.48;16.73;;;8.70;99.90;;;;;;5091146;28;20024;-51
2022/11/14 09:04:08;;;;;;;26.95;17.40;;;8.80;99.90;;;;;;5092624;28;20028;-51
2022/11/14 09:06:34;;;;;;;27.13;18.45;;;9.00;99.90;;;;;;5092476;28;20498;-52
2022/11/14 09:08:59;;;;;;;22.45;16.58;;;9.20;99.90;;;;;;5092339;28;20379;-53
2022/11/14 09:11:25;;;;;;;21.27;16.38;;;9.20;99.90;;;;;;5092324;28;20085;-53
2022/11/14 09:13:50;;;;;;;21.40;15.48;;;9.20;99.90;;;;;;5090839;28;20063;-53
2022/11/14 09:16:16;;;;;;;24.02;16.58;;;9.20;99.90;;;;;;5092271;28;20081;-51
2022/11/14 09:18:42;;;;;;;21.33;15.57;;;9.30;99.90;;;;;;5091980;28;20101;-50
2022/11/14 09:21:11;;;;;;;22.60;15.02;;;9.40;99.90;;;;;;5092294;28;20036;-53
2022/11/14 09:23:45;;;;;;;25.10;15.88;;;9.30;99.90;;;;;;5092331;28;20031;-50
2022/11/14 09:26:10;;;;;;;;;;;9.50;99.90;;;;;;5092440;28;20550;-50
2022/11/14 09:28:42;;;;;;;29.77;21.55;;;10.10;99.90;;;;;;5092038;28;19995;-53
2022/11/14 09:31:10;;;;;;;17.50;14.63;;;11.30;99.90;;;;;;5090621;28;20020;-53
2022/11/14 09:33:36;;;;;;;16.00;11.55;;;12.80;99.90;;;;;;5091877;28;20023;-55
2022/11/14 09:36:04;;;;;;;14.77;10.73;;;14.40;96.40;;;;;;5090656;28;20122;-54
2022/11/14 09:38:31;;;;;;;13.95;10.45;;;15.70;93.70;;;;;;5091698;28;20085;-51
2022/11/14 09:41:28;;;;;;;13.05;11.02;;;17.10;91.40;;;;;;5091719;28;20020;-53
2022/11/14 09:44:13;;;;;;;14.18;10.38;;;18.90;86.10;;;;;;5091674;28;20028;-55
2022/11/14 09:47:01;;;;;;;14.98;7.93;;;19.10;77.60;;;;;;5090332;28;20020;-56
2022/11/14 09:49:45;;;;;;;11.88;10.18;;;19.70;76.30;;;;;;5091228;28;20383;-55
2022/11/14 09:52:32;;;;;;;28.13;10.18;;;19.60;73.40;;;;;;5091929;28;20028;-54
2022/11/14 09:55:03;;;;;;;15.52;9.60;;;19.40;74.10;;;;;;5091845;28;20012;-52
2022/11/14 09:57:29;;;;;;;16.90;8.82;;;19.90;71.30;;;;;;5091290;28;20069;-52
2022/11/14 09:59:55;;;;;;;15.20;9.25;;;20.80;69.80;;;;;;5091369;28;20111;-53
2022/11/14 10:02:43;;;;;;;10.10;8.95;;;21.00;66.00;;;;;;5091285;28;20032;-53
2022/11/14 10:05:30;;;;;;;11.80;9.07;;;21.00;65.20;;;;;;5091351;28;20020;-56
2022/11/14 10:08:23;;;;;;;17.95;9.02;;;20.90;65.70;;;;;;5090716;28;20099;-53
2022/11/14 10:11:18;;;;;;;9.93;8.90;;;20.70;62.90;;;;;;5091171;28;20070;-53
2022/11/14 10:14:11;;;;;;;10.65;9.27;;;20.10;65.90;;;;;;5090745;28;20035;-52
2022/11/14 10:16:58;;;;;;;15.18;8.75;;;20.60;65.70;;;;;;5091079;28;20024;-52
2022/11/14 10:19:47;;;;;;;9.45;8.52;;;22.20;62.80;;;;;;5091105;28;20048;-49
2022/11/14 10:22:40;;;;;;;9.07;7.85;;;22.40;61.40;;;;;;5085352;28;20036;-53
2022/11/14 10:25:20;;;;;;;11.43;8.15;;;22.80;60.00;;;;;;5091204;28;20020;-52
2022/11/14 10:28:14;;;;;;;10.50;8.73;;;21.60;61.90;;;;;;5090686;28;20021;-51
2022/11/14 10:30:50;;;;;;;12.65;9.30;;;22.60;60.30;;;;;;5090763;28;20429;-49
2022/11/14 10:33:48;;;;;;;12.20;9.13;;;21.80;61.00;;;;;;5090878;28;20471;-53
2022/11/14 10:36:27;;;;;;;12.02;8.00;;;22.60;61.00;;;;;;5071662;28;20036;-53
2022/11/14 10:39:04;;;;;;;13.05;9.20;;;22.50;59.60;;;;;;5070830;28;20111;-54
2022/11/14 10:41:30;;;;;;;12.30;8.38;;;22.30;60.80;;;;;;5070012;28;20495;-51
2022/11/14 10:43:56;;;;;;;11.93;9.18;;;22.40;61.00;;;;;;5070578;28;20036;-52
2022/11/14 10:46:29;;;;;;;11.52;8.85;;;21.30;60.20;;;;;;5070710;28;20113;-54
2022/11/14 10:48:54;;;;;;;13.48;9.55;;;20.60;61.60;;;;;;5070532;28;20025;-51
2022/11/14 10:51:40;;;;;;;16.27;9.60;;;19.70;62.90;;;;;;5070380;28;20488;-51
2022/11/14 10:54:29;;;;;;;15.55;8.65;;;18.20;66.50;;;;;;5070402;28;20069;-52
2022/11/14 10:56:54;;;;;;;17.15;10.25;;;17.30;68.50;;;;;;5070470;28;20029;-54
2022/11/14 10:59:21;;;;;;;12.43;9.35;;;16.30;71.80;;;;;;5070532;28;20544;-53
2022/11/14 11:01:49;;;;;;;15.45;10.80;;;16.10;74.60;;;;;;5070288;28;20020;-52
2022/11/14 11:04:24;;;;;;;12.30;9.60;;;16.00;75.90;;;;;;5070946;28;20028;-50
2022/11/14 11:06:52;;;;;;;11.95;9.07;;;17.10;75.00;;;;;;5070194;28;20055;-55
2022/11/14 11:12:08;;;;;;;15.23;11.38;;;16.50;73.70;;;;;;5070579;28;20086;-55
2022/11/14 11:14:39;;;;;;;16.33;10.95;;;15.70;76.10;;;;;;5069898;28;20165;-54
2022/11/14 11:17:11;;;;;;;13.40;10.63;;;15.30;77.40;;;;;;5070323;28;20032;-54
2022/11/14 11:19:38;;;;;;;13.50;9.48;;;15.90;78.50;;;;;;5068541;28;20143;-54
2022/11/14 11:22:21;;;;;;;12.82;10.15;;;17.50;76.90;;;;;;5070156;28;20021;-55
2022/11/14 11:24:47;;;;;;;14.93;10.07;;;19.90;72.30;;;;;;5071182;28;20151;-52
2022/11/14 11:27:23;;;;;;;10.73;9.50;;;20.90;66.20;;;;;;5074065;28;20095;-55
2022/11/14 11:30:06;;;;;;;12.77;9.68;;;21.20;65.20;;;;;;5074062;28;20024;-54
2022/11/14 11:32:31;;;;;;;16.48;9.80;;;21.20;65.70;;;;;;5072654;28;20024;-50
2022/11/14 11:35:01;;;;;;;12.43;9.25;;;21.80;65.30;;;;;;5073926;28;20028;-49
2022/11/14 11:37:54;;;;;;;10.32;8.57;;;22.10;63.40;;;;;;5073853;28;20387;-54
2022/11/14 11:40:26;;;;;;;10.85;8.60;;;22.60;63.30;;;;;;5073998;28;20063;-52
2022/11/14 11:43:26;;;;;;;9.63;8.52;;;23.50;61.40;;;;;;5073679;28;20454;-53
2022/11/14 11:45:53;;;;;;;9.68;8.70;;;23.50;60.80;;;;;;5073651;28;20020;-54
2022/11/14 11:48:26;;;;;;;13.43;8.00;;;23.20;60.10;;;;;;5073782;28;20104;-50
2022/11/14 11:50:53;;;;;;;15.63;8.82;;;23.20;59.60;;;;;;5073669;28;20067;-53
2022/11/14 11:53:33;;;;;;;12.43;8.43;;;23.60;58.50;;;;;;5073586;28;20116;-54
2022/11/14 11:56:08;;;;;;;14.35;9.18;;;23.50;59.80;;;;;;5073608;28;20032;-53
2022/11/14 11:58:49;;;;;;;12.02;8.70;;;23.40;58.40;;;;;;5072190;28;20124;-55
2022/11/14 12:01:16;;;;;;;9.30;8.30;;;24.10;57.40;;;;;;5073466;28;20031;-52
2022/11/14 12:03:51;;;;;;;12.70;8.38;;;23.90;56.00;;;;;;5073279;28;20032;-53
2022/11/14 12:06:26;;;;;;;11.60;8.70;;;24.10;55.20;;;;;;5073315;28;20029;-52
2022/11/14 12:09:03;;;;;;;14.38;9.20;;;22.50;59.40;;;;;;5073166;28;20060;-50
2022/11/14 12:11:32;;;;;;;11.48;8.45;;;21.50;60.00;;;;;;5073101;28;20016;-55
2022/11/14 12:14:35;;;;;;;14.07;8.40;;;21.70;62.20;;;;;;5073383;28;20081;-51
2022/11/14 12:17:21;;;;;;;9.82;8.75;;;22.50;60.90;;;;;;5073141;28;20074;-51
2022/11/14 12:19:59;;;;;;;13.07;8.60;;;23.80;58.10;;;;;;5072642;28;20052;-54
2022/11/14 12:22:43;;;;;;;10.43;8.85;;;25.40;56.70;;;;;;5073044;28;20020;-50
2022/11/14 12:25:15;;;;;;;17.80;10.05;;;25.90;55.10;;;;;;5073024;28;20028;-53
2022/11/14 12:27:49;;;;;;;9.82;8.68;;;25.50;54.40;;;;;;5072624;28;20386;-51
2022/11/14 12:30:20;;;;;;;10.55;8.55;;;24.90;54.90;;;;;;5072887;28;20040;-56
2022/11/14 12:32:46;;;;;;;12.80;8.75;;;25.40;55.60;;;;;;5072812;28;20111;-54
2022/11/14 12:35:23;;;;;;;11.68;9.40;;;25.40;54.00;;;;;;5072558;28;20436;-55
2022/11/14 12:37:53;;;;;;;18.02;8.43;;;25.30;53.60;;;;;;5072609;28;20074;-54
2022/11/14 12:40:39;;;;;;;12.70;9.25;;;24.70;55.20;;;;;;5072946;28;20107;-53
2022/11/14 12:43:23;;;;;;;12.50;9.77;;;24.60;55.70;;;;;;5072611;28;20028;-53
2022/11/14 12:45:52;;;;;;;17.48;9.80;;;24.10;55.90;;;;;;5072644;28;20081;-53
2022/11/14 12:48:22;;;;;;;15.88;8.95;;;24.40;55.80;;;;;;5072463;28;20031;-53